Time;durP1;ratioP1;P1;durP2;ratioP2;P2;SDS_P1;SDS_P2;PMS_P1;PMS_P2;Temp;Humidity;BMP_temperature;BMP_pressure;BME280_temperature;BME280_humidity;BME280_pressure;Samples;Min_cycle;Max_cycle;Signal;HPM_P1;HPM_P2
2023/05/25 00:02:18;;;;;;;11.70;4.70;;;10.20;99.90;;;;;;5131930;27;20031;-53
2023/05/25 00:04:47;;;;;;;11.10;4.88;;;10.20;99.90;;;;;;5115090;27;20042;-54
2023/05/25 00:07:14;;;;;;;11.68;4.72;;;10.20;99.90;;;;;;5133859;27;20043;-54
2023/05/25 00:09:43;;;;;;;12.50;4.80;;;10.10;99.90;;;;;;5133428;27;20039;-57
2023/05/25 00:12:09;;;;;;;15.98;5.20;;;10.20;99.90;;;;;;5114520;27;20043;-55
2023/05/25 00:14:35;;;;;;;17.08;4.80;;;10.10;99.90;;;;;;5133439;27;20043;-57
2023/05/25 00:17:02;;;;;;;14.25;4.18;;;10.10;99.90;;;;;;5133554;27;20413;-53
2023/05/25 00:19:31;;;;;;;12.02;4.45;;;10.10;99.90;;;;;;5133300;27;20470;-55
2023/05/25 00:22:00;;;;;;;13.23;4.70;;;10.10;99.90;;;;;;5133005;27;20046;-54
2023/05/25 00:24:28;;;;;;;14.50;4.88;;;10.00;99.90;;;;;;5133345;27;20477;-57
2023/05/25 00:26:53;;;;;;;11.80;5.13;;;10.10;99.90;;;;;;5133249;27;20042;-58
2023/05/25 00:29:19;;;;;;;12.27;4.53;;;10.00;99.90;;;;;;5132595;27;20037;-52
2023/05/25 00:31:45;;;;;;;15.73;5.30;;;10.10;99.90;;;;;;5132788;27;20092;-56
2023/05/25 00:34:10;;;;;;;14.00;4.90;;;10.00;99.90;;;;;;5114133;27;20070;-54
2023/05/25 00:36:36;;;;;;;14.10;5.40;;;10.00;99.90;;;;;;5133196;27;20038;-57
2023/05/25 00:39:02;;;;;;;15.27;5.22;;;10.00;99.90;;;;;;5132654;27;20043;-56
2023/05/25 00:41:30;;;;;;;12.68;4.85;;;10.00;99.90;;;;;;5132639;27;20466;-56
2023/05/25 00:43:55;;;;;;;15.57;4.85;;;10.00;99.90;;;;;;5131085;27;20059;-55
2023/05/25 00:46:22;;;;;;;14.85;5.10;;;10.00;99.90;;;;;;5132394;27;20051;-57
2023/05/25 00:48:51;;;;;;;16.17;4.90;;;9.90;99.90;;;;;;5132738;27;20041;-56
2023/05/25 00:51:16;;;;;;;16.58;5.03;;;9.90;99.90;;;;;;5132760;27;20043;-55
2023/05/25 00:53:42;;;;;;;12.50;4.63;;;9.90;99.90;;;;;;5132566;27;20512;-55
2023/05/25 00:56:16;;;;;;;16.23;4.90;;;9.90;99.90;;;;;;5114304;27;20110;-59
2023/05/25 00:58:45;;;;;;;14.20;5.85;;;9.90;99.90;;;;;;5132606;27;20050;-57
2023/05/25 01:01:14;;;;;;;15.20;5.15;;;9.80;99.90;;;;;;5132620;27;20047;-57
2023/05/25 01:03:44;;;;;;;13.80;5.22;;;9.80;99.90;;;;;;5132527;27;20143;-57
2023/05/25 01:06:16;;;;;;;14.88;5.68;;;9.80;99.90;;;;;;5132655;27;20443;-56
2023/05/25 01:08:52;;;;;;;17.20;5.75;;;9.80;99.90;;;;;;5132348;27;20501;-56
2023/05/25 01:11:26;;;;;;;14.60;5.35;;;9.70;99.90;;;;;;5132043;27;20042;-57
2023/05/25 01:13:53;;;;;;;11.50;5.75;;;9.70;99.90;;;;;;5131909;27;20095;-54
2023/05/25 01:16:19;;;;;;;14.80;5.90;;;9.70;99.90;;;;;;5132533;27;20142;-57
2023/05/25 01:18:47;;;;;;;13.77;5.20;;;9.70;99.90;;;;;;5132333;27;20035;-56
2023/05/25 01:21:44;;;;;;;14.75;6.20;;;9.60;99.90;;;;;;5114173;27;20054;-55
2023/05/25 01:24:21;;;;;;;13.40;4.88;;;9.50;99.90;;;;;;5131416;27;20047;-54
2023/05/25 01:27:26;;;;;;;11.13;5.18;;;9.50;99.90;;;;;;5132347;27;20038;-55
2023/05/25 01:29:53;;;;;;;14.27;5.95;;;9.50;99.90;;;;;;5068489;28;20447;-51
2023/05/25 01:32:20;;;;;;;12.75;5.45;;;9.40;99.90;;;;;;5119669;27;20486;-58
2023/05/25 01:34:47;;;;;;;15.90;7.75;;;9.50;99.90;;;;;;5132059;27;20394;-53
2023/05/25 01:37:13;;;;;;;19.33;6.18;;;9.40;99.90;;;;;;5113349;27;20082;-54
2023/05/25 01:39:41;;;;;;;15.43;5.97;;;9.40;99.90;;;;;;5132049;27;20467;-55
2023/05/25 01:42:07;;;;;;;16.98;5.95;;;9.40;99.90;;;;;;5129786;27;20039;-54
2023/05/25 01:44:32;;;;;;;14.50;5.65;;;9.40;99.90;;;;;;5131598;27;20050;-58
2023/05/25 01:47:16;;;;;;;13.88;5.30;;;9.40;99.90;;;;;;5113182;27;20162;-57
2023/05/25 01:49:55;;;;;;;16.92;5.97;;;9.30;99.90;;;;;;5131861;27;20539;-55
2023/05/25 01:52:34;;;;;;;12.23;5.65;;;9.20;99.90;;;;;;5113308;28;20478;-58
2023/05/25 01:55:05;;;;;;;14.73;5.93;;;9.20;99.90;;;;;;5131166;27;20501;-53
2023/05/25 01:57:34;;;;;;;22.05;6.40;;;9.20;99.90;;;;;;5131995;28;20170;-53
2023/05/25 02:00:02;;;;;;;15.77;6.13;;;9.10;99.90;;;;;;5131913;28;20470;-56
2023/05/25 02:02:29;;;;;;;18.95;8.55;;;9.10;99.90;;;;;;5131818;28;20035;-52
2023/05/25 02:04:55;;;;;;;18.50;6.53;;;9.10;99.90;;;;;;5131611;28;20039;-54
2023/05/25 02:07:22;;;;;;;15.82;6.63;;;9.10;99.90;;;;;;5131748;28;20114;-55
2023/05/25 02:09:48;;;;;;;18.77;6.65;;;9.00;99.90;;;;;;5131354;28;20036;-55
2023/05/25 02:12:13;;;;;;;13.40;6.82;;;9.00;99.90;;;;;;5131596;28;20036;-54
2023/05/25 02:14:39;;;;;;;18.90;6.72;;;9.10;99.90;;;;;;5131370;28;20047;-57
2023/05/25 02:17:06;;;;;;;15.40;6.70;;;9.00;99.90;;;;;;5132017;28;20095;-56
2023/05/25 02:19:31;;;;;;;20.58;7.38;;;9.00;99.90;;;;;;5131668;28;20042;-55
2023/05/25 02:21:57;;;;;;;20.70;6.80;;;9.10;99.90;;;;;;5131589;28;20478;-56
2023/05/25 02:24:24;;;;;;;20.85;7.00;;;9.00;99.90;;;;;;5131484;28;20092;-57
2023/05/25 02:26:50;;;;;;;21.02;6.63;;;9.00;99.90;;;;;;5131751;28;20371;-56
2023/05/25 02:29:16;;;;;;;17.10;6.35;;;9.00;99.90;;;;;;5112735;28;20161;-54
2023/05/25 02:31:42;;;;;;;17.02;6.47;;;9.00;99.90;;;;;;5131515;28;20080;-53
2023/05/25 02:34:07;;;;;;;14.82;6.50;;;9.00;99.90;;;;;;5131136;27;20043;-55
2023/05/25 02:36:33;;;;;;;21.33;6.70;;;9.00;99.90;;;;;;5131658;28;20042;-56
2023/05/25 02:38:59;;;;;;;17.90;6.45;;;8.90;99.90;;;;;;5131078;27;20256;-55
2023/05/25 02:41:26;;;;;;;15.48;5.85;;;8.90;99.90;;;;;;5112856;28;20117;-55
2023/05/25 02:43:52;;;;;;;17.75;6.22;;;8.90;99.90;;;;;;5130934;28;20467;-55
2023/05/25 02:46:18;;;;;;;17.40;6.72;;;8.90;99.90;;;;;;5131094;28;20498;-58
2023/05/25 02:48:43;;;;;;;16.55;6.60;;;8.90;99.90;;;;;;5130944;28;20038;-55
2023/05/25 02:51:09;;;;;;;15.35;6.25;;;8.80;99.90;;;;;;5130949;28;20039;-55
2023/05/25 02:53:35;;;;;;;21.20;7.10;;;8.80;99.90;;;;;;5131458;28;20034;-56
2023/05/25 02:56:03;;;;;;;17.38;9.52;;;8.80;99.90;;;;;;5131106;28;20047;-56
2023/05/25 02:58:29;;;;;;;17.25;6.55;;;8.80;99.90;;;;;;5131379;28;20351;-54
2023/05/25 03:00:55;;;;;;;16.60;9.70;;;8.70;99.90;;;;;;5131022;27;20050;-55
2023/05/25 03:03:20;;;;;;;18.88;6.93;;;8.80;99.90;;;;;;5131269;28;20031;-53
2023/05/25 03:05:47;;;;;;;20.42;7.18;;;8.70;99.90;;;;;;5130984;27;20064;-51
2023/05/25 03:08:13;;;;;;;18.73;7.93;;;8.70;99.90;;;;;;5133551;27;20031;-56
2023/05/25 03:10:39;;;;;;;15.90;6.78;;;8.70;99.90;;;;;;5116100;27;20439;-58
2023/05/25 03:13:04;;;;;;;15.77;6.28;;;8.80;99.90;;;;;;5134014;27;20398;-54
2023/05/25 03:15:30;;;;;;;15.85;7.13;;;8.80;99.90;;;;;;5134502;27;20031;-55
2023/05/25 03:17:59;;;;;;;18.20;6.88;;;8.80;99.90;;;;;;5134408;27;20039;-56
2023/05/25 03:20:29;;;;;;;20.88;10.40;;;8.70;99.90;;;;;;5134625;27;20043;-54
2023/05/25 03:22:55;;;;;;;17.90;6.97;;;8.70;99.90;;;;;;5134425;27;20100;-56
2023/05/25 03:25:20;;;;;;;21.10;7.28;;;8.70;99.90;;;;;;5134138;27;20420;-54
2023/05/25 03:27:46;;;;;;;22.17;11.23;;;8.70;99.90;;;;;;5134592;27;20019;-54
2023/05/25 03:30:12;;;;;;;24.38;8.35;;;8.70;99.90;;;;;;5134531;27;20130;-58
2023/05/25 03:32:38;;;;;;;23.75;7.90;;;8.70;99.90;;;;;;5115658;27;20085;-55
2023/05/25 03:35:04;;;;;;;23.13;12.82;;;8.70;99.90;;;;;;5134426;27;20152;-55
2023/05/25 03:37:30;;;;;;;20.88;8.40;;;8.80;99.90;;;;;;5115320;27;20039;-58
2023/05/25 03:39:56;;;;;;;20.02;8.70;;;8.70;99.90;;;;;;5134164;27;20047;-53
2023/05/25 03:42:22;;;;;;;17.98;7.70;;;8.70;99.90;;;;;;5133755;27;20046;-57
2023/05/25 03:44:47;;;;;;;20.27;11.50;;;8.80;99.90;;;;;;5134081;27;20497;-55
2023/05/25 03:47:13;;;;;;;27.33;9.88;;;8.70;99.90;;;;;;5133920;27;20058;-58
2023/05/25 03:49:38;;;;;;;20.45;7.82;;;8.80;99.90;;;;;;5133860;27;20046;-58
2023/05/25 03:52:05;;;;;;;29.92;8.68;;;8.80;99.90;;;;;;5115394;27;20046;-55
2023/05/25 03:54:31;;;;;;;19.38;8.98;;;8.80;99.90;;;;;;5133778;27;20538;-53
2023/05/25 03:57:01;;;;;;;19.27;8.60;;;8.80;99.90;;;;;;5133952;27;20075;-55
2023/05/25 03:59:26;;;;;;;17.65;7.60;;;8.70;99.90;;;;;;5133535;27;20104;-53
2023/05/25 04:01:52;;;;;;;18.35;7.63;;;8.70;99.90;;;;;;5133842;27;20068;-56
2023/05/25 04:04:17;;;;;;;27.52;8.65;;;8.80;99.90;;;;;;5133724;27;20106;-57
2023/05/25 04:06:44;;;;;;;19.58;8.00;;;8.80;99.90;;;;;;5133816;27;20092;-56
2023/05/25 04:09:10;;;;;;;16.77;8.10;;;8.80;99.90;;;;;;5132310;27;20043;-53
2023/05/25 04:11:36;;;;;;;20.85;8.18;;;8.80;99.90;;;;;;5133727;27;20042;-58
2023/05/25 04:14:02;;;;;;;25.75;8.95;;;8.80;99.90;;;;;;5133269;27;20088;-57
2023/05/25 04:16:28;;;;;;;25.00;8.73;;;8.90;99.90;;;;;;5133300;27;20084;-54
2023/05/25 04:18:54;;;;;;;20.85;8.20;;;8.90;99.90;;;;;;5132911;27;20045;-57
2023/05/25 04:21:20;;;;;;;20.50;8.55;;;8.90;99.90;;;;;;5133145;27;20047;-53
2023/05/25 04:23:46;;;;;;;17.98;7.13;;;8.90;99.90;;;;;;5133277;27;20031;-55
2023/05/25 04:26:12;;;;;;;20.80;8.02;;;9.00;99.90;;;;;;5133140;27;20110;-55
2023/05/25 04:28:39;;;;;;;28.95;8.85;;;9.00;99.90;;;;;;5132840;27;20035;-56
2023/05/25 04:31:05;;;;;;;20.23;8.00;;;9.10;99.90;;;;;;5133272;27;20111;-58
2023/05/25 04:33:33;;;;;;;24.50;8.20;;;9.10;99.90;;;;;;5133131;27;20428;-53
2023/05/25 04:35:59;;;;;;;19.42;8.93;;;9.20;99.90;;;;;;5133350;27;20047;-55
2023/05/25 04:38:25;;;;;;;22.67;8.85;;;9.20;99.90;;;;;;5114662;27;20106;-58
2023/05/25 04:40:52;;;;;;;21.52;8.95;;;9.20;99.90;;;;;;5133115;27;20107;-55
2023/05/25 04:43:19;;;;;;;19.98;9.52;;;9.30;99.90;;;;;;5132612;27;20130;-56
2023/05/25 04:45:45;;;;;;;21.30;12.77;;;9.30;99.90;;;;;;5132721;27;20047;-55
2023/05/25 04:48:12;;;;;;;18.20;8.60;;;9.40;99.90;;;;;;5132357;27;20058;-57
2023/05/25 04:50:40;;;;;;;21.80;8.85;;;9.40;99.90;;;;;;5132603;27;20071;-55
2023/05/25 04:53:06;;;;;;;27.35;9.77;;;9.50;99.90;;;;;;5132691;27;20031;-58
2023/05/25 04:55:32;;;;;;;26.60;10.57;;;9.50;99.90;;;;;;5132696;27;20039;-55
2023/05/25 04:57:58;;;;;;;26.52;11.18;;;9.50;99.90;;;;;;5132728;27;20513;-54
2023/05/25 05:00:23;;;;;;;27.05;11.15;;;9.60;99.90;;;;;;5132697;27;20038;-56
2023/05/25 05:02:50;;;;;;;23.67;11.63;;;9.60;99.90;;;;;;5132499;27;20453;-58
2023/05/25 05:05:16;;;;;;;29.27;11.93;;;9.60;99.90;;;;;;5132505;27;20035;-53
2023/05/25 05:07:42;;;;;;;27.30;11.50;;;9.70;99.90;;;;;;5113792;27;20130;-57
2023/05/25 05:10:08;;;;;;;29.38;11.80;;;9.70;99.90;;;;;;5132098;27;20113;-55
2023/05/25 05:12:34;;;;;;;25.38;12.45;;;9.70;99.90;;;;;;5132030;27;20122;-57
2023/05/25 05:15:00;;;;;;;26.92;11.93;;;9.80;99.90;;;;;;5132522;27;20446;-55
2023/05/25 05:17:26;;;;;;;24.70;11.15;;;9.80;99.90;;;;;;5132314;27;20111;-55
2023/05/25 05:19:52;;;;;;;25.00;10.45;;;9.90;99.90;;;;;;5132138;27;20050;-54
2023/05/25 05:22:18;;;;;;;28.83;11.43;;;9.90;99.90;;;;;;5132262;27;20031;-55
2023/05/25 05:24:44;;;;;;;30.00;11.02;;;10.10;99.90;;;;;;5132363;27;20035;-55
2023/05/25 05:27:12;;;;;;;22.08;10.50;;;10.10;99.90;;;;;;5132147;27;20096;-57
2023/05/25 05:29:38;;;;;;;27.85;11.13;;;10.20;99.90;;;;;;5131522;27;20034;-57
2023/05/25 05:32:04;;;;;;;30.27;13.23;;;10.30;99.90;;;;;;5131864;27;20083;-55
2023/05/25 05:34:30;;;;;;;24.88;11.77;;;10.30;99.90;;;;;;5132173;27;20047;-55
2023/05/25 05:36:55;;;;;;;25.92;11.75;;;10.40;99.90;;;;;;5132228;27;20210;-56
2023/05/25 05:39:21;;;;;;;28.83;12.18;;;10.50;99.90;;;;;;5132093;27;20486;-53
2023/05/25 05:41:47;;;;;;;25.85;11.93;;;10.50;99.90;;;;;;5131840;27;20517;-55
2023/05/25 05:44:13;;;;;;;25.77;12.35;;;10.70;99.90;;;;;;5131580;27;20371;-51
2023/05/25 05:46:38;;;;;;;24.63;12.00;;;10.80;99.90;;;;;;5131528;27;20047;-54
2023/05/25 05:49:04;;;;;;;24.48;12.35;;;10.80;99.90;;;;;;5132021;27;20062;-56
2023/05/25 05:51:30;;;;;;;26.50;12.77;;;10.80;99.90;;;;;;5131435;27;20087;-57
2023/05/25 05:53:56;;;;;;;28.90;12.10;;;10.90;99.90;;;;;;5131681;28;20078;-54
2023/05/25 05:56:22;;;;;;;24.48;11.82;;;11.00;99.90;;;;;;5131689;28;20075;-59
2023/05/25 05:58:48;;;;;;;25.35;13.55;;;11.00;99.90;;;;;;5131707;28;20132;-56
2023/05/25 06:01:16;;;;;;;30.77;11.95;;;11.20;99.90;;;;;;5131644;28;20038;-56
2023/05/25 06:03:44;;;;;;;19.98;11.13;;;11.20;99.90;;;;;;5131793;28;20048;-58
2023/05/25 06:06:10;;;;;;;26.65;12.00;;;11.30;99.90;;;;;;5131796;28;20035;-56
2023/05/25 06:08:36;;;;;;;27.90;14.02;;;11.30;99.90;;;;;;5131645;28;20047;-56
2023/05/25 06:11:01;;;;;;;25.45;11.80;;;11.50;99.90;;;;;;5131645;28;20035;-57
2023/05/25 06:13:27;;;;;;;24.30;11.93;;;11.60;99.90;;;;;;5131441;28;20033;-54
2023/05/25 06:15:53;;;;;;;23.52;11.57;;;11.60;99.90;;;;;;5131504;27;20087;-54
2023/05/25 06:18:18;;;;;;;22.77;11.93;;;11.70;99.90;;;;;;5131685;28;20027;-56
2023/05/25 06:20:44;;;;;;;20.65;11.35;;;11.80;99.90;;;;;;5131700;28;20058;-55
2023/05/25 06:23:12;;;;;;;23.00;10.88;;;11.90;99.90;;;;;;5131469;28;20039;-58
2023/05/25 06:25:38;;;;;;;18.38;10.52;;;11.90;99.90;;;;;;5131115;27;20070;-54
2023/05/25 06:28:04;;;;;;;21.58;9.18;;;12.00;99.90;;;;;;5131608;28;20482;-56
2023/05/25 06:30:30;;;;;;;24.10;9.48;;;12.10;99.90;;;;;;5131316;28;20096;-57
2023/05/25 06:32:56;;;;;;;19.83;9.52;;;12.10;99.90;;;;;;5131571;28;20482;-57
2023/05/25 06:35:21;;;;;;;24.70;9.85;;;12.10;99.90;;;;;;5131244;28;20039;-56
2023/05/25 06:37:50;;;;;;;19.50;8.98;;;12.20;99.90;;;;;;5131615;28;20533;-58
2023/05/25 06:40:16;;;;;;;21.98;9.10;;;12.30;99.90;;;;;;5131602;28;20041;-54
2023/05/25 06:42:42;;;;;;;22.02;8.40;;;12.30;99.90;;;;;;5134487;27;20031;-57
2023/05/25 06:45:09;;;;;;;22.48;8.45;;;12.40;99.90;;;;;;5135226;27;20027;-57
2023/05/25 06:47:35;;;;;;;21.60;8.45;;;12.40;99.90;;;;;;5135099;27;20051;-55
2023/05/25 06:50:01;;;;;;;20.50;7.82;;;12.50;99.90;;;;;;5135049;27;20070;-55
2023/05/25 06:52:30;;;;;;;16.45;8.00;;;12.50;99.90;;;;;;5135236;27;20046;-58
2023/05/25 06:54:56;;;;;;;14.57;6.90;;;12.60;99.90;;;;;;5133921;27;20049;-59
2023/05/25 06:57:23;;;;;;;15.05;6.28;;;12.60;99.90;;;;;;5135149;27;20031;-58
2023/05/25 06:59:48;;;;;;;15.77;5.75;;;12.60;99.90;;;;;;5135076;27;20042;-56
2023/05/25 07:02:14;;;;;;;15.43;5.50;;;12.70;99.90;;;;;;5116528;27;20397;-57
2023/05/25 07:04:40;;;;;;;14.48;6.00;;;12.80;99.90;;;;;;5134905;27;20106;-56
2023/05/25 07:07:06;;;;;;;11.73;5.55;;;12.80;99.90;;;;;;5135134;27;20035;-57
2023/05/25 07:09:32;;;;;;;16.48;6.78;;;12.90;99.90;;;;;;5135017;27;20031;-53
2023/05/25 07:11:57;;;;;;;13.68;5.68;;;13.00;99.90;;;;;;5134936;27;20486;-58
2023/05/25 07:14:23;;;;;;;12.55;6.20;;;13.00;99.90;;;;;;5134033;27;20035;-56
2023/05/25 07:16:49;;;;;;;12.73;6.10;;;13.20;99.90;;;;;;5134925;27;20039;-56
2023/05/25 07:19:15;;;;;;;14.70;5.43;;;13.30;99.90;;;;;;5134676;27;20035;-55
2023/05/25 07:21:41;;;;;;;13.07;5.93;;;13.40;99.90;;;;;;5134722;27;20478;-54
2023/05/25 07:24:06;;;;;;;12.60;4.90;;;13.50;99.90;;;;;;5134181;27;20039;-56
2023/05/25 07:26:33;;;;;;;12.50;4.50;;;13.60;99.90;;;;;;5134636;27;20023;-56
2023/05/25 07:29:00;;;;;;;14.68;4.82;;;13.50;99.90;;;;;;5134324;27;20382;-59
2023/05/25 07:31:25;;;;;;;11.43;4.85;;;13.50;99.90;;;;;;5134576;27;20114;-56
2023/05/25 07:33:52;;;;;;;13.48;5.10;;;13.50;99.90;;;;;;5134114;27;20114;-55
2023/05/25 07:36:18;;;;;;;12.65;4.60;;;13.60;99.90;;;;;;5134487;27;20043;-57
2023/05/25 07:38:45;;;;;;;13.05;4.20;;;13.60;99.90;;;;;;5134249;27;20058;-59
2023/05/25 07:41:12;;;;;;;16.05;4.43;;;13.60;99.90;;;;;;5134190;27;20089;-57
2023/05/25 07:43:38;;;;;;;14.98;4.32;;;13.80;99.90;;;;;;5133562;27;20121;-56
2023/05/25 07:46:04;;;;;;;12.82;4.03;;;13.80;99.90;;;;;;5133879;27;20084;-54
2023/05/25 07:48:30;;;;;;;14.70;3.92;;;13.90;99.90;;;;;;5133983;27;20098;-55
2023/05/25 07:50:56;;;;;;;13.88;3.80;;;14.00;99.90;;;;;;5134262;27;20060;-56
2023/05/25 07:53:21;;;;;;;12.57;4.13;;;14.10;99.90;;;;;;5133196;27;20035;-53
2023/05/25 07:55:47;;;;;;;12.88;4.47;;;14.20;99.90;;;;;;5133848;27;20446;-59
2023/05/25 07:58:13;;;;;;;18.25;4.13;;;14.30;99.90;;;;;;5133827;27;20050;-56
2023/05/25 08:00:39;;;;;;;11.60;3.70;;;14.40;99.90;;;;;;5115340;27;20376;-57
2023/05/25 08:03:04;;;;;;;16.02;4.88;;;14.50;99.90;;;;;;5133497;27;20046;-55
2023/05/25 08:09:12;;;;;;;15.27;3.78;;;14.60;99.90;;;;;;5133239;27;20067;-53
2023/05/25 08:11:39;;;;;;;15.05;4.13;;;14.60;99.90;;;;;;5132156;27;20043;-58
2023/05/25 08:14:05;;;;;;;14.20;4.35;;;14.80;99.90;;;;;;5133789;27;20435;-56
2023/05/25 08:16:30;;;;;;;13.98;3.80;;;14.80;99.90;;;;;;5133768;27;20046;-57
2023/05/25 08:18:56;;;;;;;12.38;4.22;;;14.90;99.90;;;;;;5133672;27;20039;-56
2023/05/25 08:21:22;;;;;;;10.80;3.40;;;14.90;99.90;;;;;;5133617;27;20386;-55
2023/05/25 08:23:49;;;;;;;11.38;3.45;;;15.00;99.90;;;;;;5133543;27;20035;-59
2023/05/25 08:26:15;;;;;;;12.57;3.83;;;15.00;99.90;;;;;;5133606;27;20459;-57
2023/05/25 08:28:40;;;;;;;10.68;4.10;;;15.00;99.90;;;;;;5133501;27;20034;-57
2023/05/25 08:31:06;;;;;;;11.55;3.65;;;15.00;99.90;;;;;;5133273;27;20463;-57
2023/05/25 08:33:32;;;;;;;14.60;3.65;;;15.00;99.90;;;;;;5133252;27;20478;-56
2023/05/25 08:35:58;;;;;;;13.68;3.88;;;15.00;99.90;;;;;;5133382;27;20493;-55
2023/05/25 08:38:24;;;;;;;12.43;4.28;;;15.00;99.90;;;;;;5132578;27;20039;-57
2023/05/25 08:41:10;;;;;;;11.43;3.88;;;15.00;99.90;;;;;;5133404;27;20451;-57
2023/05/25 08:43:36;;;;;;;13.32;3.65;;;14.90;99.90;;;;;;5132794;27;20077;-55
2023/05/25 08:46:05;;;;;;;11.65;3.80;;;14.90;99.90;;;;;;5132987;27;20067;-57
2023/05/25 08:48:34;;;;;;;11.35;3.72;;;14.80;99.90;;;;;;5133083;27;20431;-56
2023/05/25 08:51:04;;;;;;;12.13;4.13;;;14.90;99.90;;;;;;5133072;27;20092;-56
2023/05/25 08:53:34;;;;;;;12.77;4.00;;;14.90;99.90;;;;;;5133033;27;20034;-56
2023/05/25 08:56:01;;;;;;;11.25;4.03;;;14.90;99.90;;;;;;5133082;27;20402;-57
2023/05/25 08:58:33;;;;;;;13.05;4.07;;;14.90;99.90;;;;;;5114290;27;20047;-55
2023/05/25 09:01:05;;;;;;;13.50;4.07;;;15.00;99.90;;;;;;5132918;27;20066;-58
2023/05/25 09:03:32;;;;;;;10.65;3.40;;;15.00;99.90;;;;;;5132474;27;20046;-56
2023/05/25 09:05:58;;;;;;;13.85;4.07;;;15.10;99.90;;;;;;5131658;27;20028;-57
2023/05/25 09:08:25;;;;;;;12.73;4.07;;;15.10;99.90;;;;;;5132338;27;20042;-58
2023/05/25 09:10:52;;;;;;;13.45;4.40;;;15.10;99.90;;;;;;5132308;27;20118;-60
2023/05/25 09:13:18;;;;;;;13.02;3.75;;;15.00;99.90;;;;;;5132265;27;20043;-59
2023/05/25 09:15:44;;;;;;;13.77;4.05;;;15.00;99.90;;;;;;5131782;27;20042;-60
2023/05/25 09:18:10;;;;;;;15.75;3.65;;;14.90;99.90;;;;;;5132604;27;20043;-58
2023/05/25 09:20:35;;;;;;;14.48;4.30;;;14.90;99.90;;;;;;5132473;27;20031;-61
2023/05/25 09:23:02;;;;;;;12.88;3.92;;;14.90;99.90;;;;;;5132541;27;20119;-59
2023/05/25 09:25:28;;;;;;;15.38;4.07;;;14.90;99.90;;;;;;5132095;27;20039;-59
2023/05/25 09:27:58;;;;;;;14.00;3.90;;;14.90;99.90;;;;;;5132186;27;20118;-60
2023/05/25 09:30:24;;;;;;;13.80;3.75;;;15.00;99.90;;;;;;5127967;27;20063;-56
2023/05/25 09:32:50;;;;;;;9.88;3.78;;;15.20;99.90;;;;;;5127899;27;20042;-59
2023/05/25 09:35:16;;;;;;;12.60;3.78;;;15.20;99.90;;;;;;5129029;27;20031;-59
2023/05/25 09:37:43;;;;;;;18.00;4.28;;;15.30;99.90;;;;;;5109517;27;20072;-59
2023/05/25 09:40:12;;;;;;;14.25;3.80;;;15.40;99.90;;;;;;5128592;27;20100;-60
2023/05/25 09:42:38;;;;;;;12.75;3.85;;;15.30;99.90;;;;;;5127380;27;20035;-60
2023/05/25 09:45:04;;;;;;;12.90;3.67;;;15.40;99.90;;;;;;5128288;27;20436;-62
2023/05/25 09:47:30;;;;;;;12.45;3.67;;;15.30;99.90;;;;;;5123285;27;20051;-58
2023/05/25 09:49:57;;;;;;;11.90;3.67;;;15.40;99.90;;;;;;5126015;27;20096;-60
2023/05/25 09:52:23;;;;;;;13.75;3.95;;;15.30;99.90;;;;;;5105117;27;20547;-59
2023/05/25 09:54:50;;;;;;;12.68;3.42;;;15.20;99.90;;;;;;5128996;27;20092;-60
2023/05/25 09:57:18;;;;;;;12.07;3.67;;;15.20;99.90;;;;;;5090785;28;20412;-61
2023/05/25 09:59:44;;;;;;;16.38;4.25;;;15.20;99.90;;;;;;5128856;28;20035;-61
2023/05/25 10:02:11;;;;;;;17.48;4.63;;;15.10;99.90;;;;;;5131151;28;20478;-59
2023/05/25 10:04:37;;;;;;;14.40;4.32;;;15.00;99.90;;;;;;5132133;28;20031;-60
2023/05/25 10:07:03;;;;;;;17.75;4.07;;;14.90;99.90;;;;;;5132157;28;20039;-59
2023/05/25 10:09:30;;;;;;;16.33;4.05;;;14.90;99.90;;;;;;5130050;28;20495;-60
2023/05/25 10:11:57;;;;;;;17.05;4.20;;;14.90;99.90;;;;;;5113432;28;20151;-60
2023/05/25 10:14:26;;;;;;;20.10;4.95;;;15.00;99.90;;;;;;5129828;28;20043;-57
2023/05/25 10:16:58;;;;;;;15.90;4.55;;;15.20;99.90;;;;;;5132896;27;20074;-56
2023/05/25 10:19:56;;;;;;;13.57;3.20;;;15.30;99.90;;;;;;5135156;27;20031;-58
2023/05/25 10:22:31;;;;;;;20.30;4.22;;;15.50;99.90;;;;;;5101020;27;20076;-60
2023/05/25 10:25:27;;;;;;;67.57;22.63;;;15.80;99.90;;;;;;5136080;27;20035;-58
2023/05/25 10:27:56;;;;;;;18.52;4.85;;;16.10;99.90;;;;;;5136009;27;20039;-60
2023/05/25 10:30:24;;;;;;;16.85;4.53;;;16.20;99.90;;;;;;5134741;27;20046;-58
2023/05/25 10:32:51;;;;;;;18.77;4.88;;;16.30;99.90;;;;;;5134739;27;20184;-59
2023/05/25 10:35:18;;;;;;;16.40;5.63;;;16.30;99.90;;;;;;5134534;27;20183;-60
2023/05/25 10:37:44;;;;;;;21.65;4.68;;;16.20;99.90;;;;;;5134735;27;20054;-59
2023/05/25 10:40:11;;;;;;;15.57;4.03;;;16.20;99.90;;;;;;5135296;27;20031;-59
2023/05/25 10:42:38;;;;;;;19.48;4.45;;;16.30;99.90;;;;;;5135379;27;20043;-57
2023/05/25 10:45:07;;;;;;;12.10;3.60;;;16.40;99.90;;;;;;5135770;27;21457;-59
2023/05/25 10:47:35;;;;;;;15.82;4.13;;;16.50;99.90;;;;;;5131183;27;20494;-58
2023/05/25 10:50:02;;;;;;;18.58;4.25;;;16.50;99.90;;;;;;5134336;27;21460;-59
2023/05/25 10:52:29;;;;;;;21.05;4.88;;;16.50;99.90;;;;;;5113308;27;20052;-59
2023/05/25 10:54:56;;;;;;;17.35;4.03;;;16.60;99.90;;;;;;5108609;27;20726;-59
2023/05/25 10:57:24;;;;;;;17.35;4.45;;;16.80;99.90;;;;;;5130475;27;20409;-60
2023/05/25 11:00:00;;;;;;;19.02;4.18;;;16.90;99.90;;;;;;5129537;27;20039;-59
2023/05/25 11:02:29;;;;;;;20.40;5.00;;;16.90;99.90;;;;;;5130463;27;20086;-59
2023/05/25 11:05:27;;;;;;;16.83;4.47;;;16.80;99.90;;;;;;5130681;27;20042;-58
2023/05/25 11:08:01;;;;;;;17.48;4.30;;;16.60;99.90;;;;;;5123536;27;20047;-60
2023/05/25 11:10:45;;;;;;;14.52;4.40;;;16.60;99.90;;;;;;5131825;27;20391;-58
2023/05/25 11:13:30;;;;;;;20.98;5.32;;;16.50;99.90;;;;;;5130902;27;20142;-59
2023/05/25 11:16:17;;;;;;;15.80;4.00;;;16.70;99.90;;;;;;5129501;27;20047;-58
2023/05/25 11:18:52;;;;;;;16.23;4.57;;;17.10;99.90;;;;;;5129816;27;20037;-60
2023/05/25 11:21:41;;;;;;;16.45;3.70;;;17.30;99.90;;;;;;5130036;27;20041;-58
2023/05/25 11:24:12;;;;;;;15.95;4.50;;;17.70;99.90;;;;;;5129664;27;20035;-57
2023/05/25 11:26:55;;;;;;;19.70;4.38;;;17.90;99.90;;;;;;5095924;27;20042;-57
2023/05/25 11:29:21;;;;;;;17.10;3.47;;;18.00;99.90;;;;;;5107191;27;20047;-60
2023/05/25 11:31:56;;;;;;;13.75;3.72;;;18.20;99.90;;;;;;5123165;27;20112;-58
2023/05/25 11:34:26;;;;;;;15.48;4.15;;;18.50;99.90;;;;;;5130153;27;20035;-60
2023/05/25 11:36:57;;;;;;;13.13;3.63;;;18.40;99.90;;;;;;5128068;27;20057;-59
2023/05/25 11:39:23;;;;;;;16.85;4.38;;;18.20;99.90;;;;;;5125490;27;20480;-58
2023/05/25 11:41:54;;;;;;;15.45;4.47;;;18.00;99.90;;;;;;5133640;27;20114;-57
2023/05/25 11:44:28;;;;;;;15.48;4.22;;;18.10;99.90;;;;;;5133963;27;20070;-57
2023/05/25 11:47:00;;;;;;;14.75;4.07;;;18.30;99.90;;;;;;5098038;27;20108;-58
2023/05/25 11:49:26;;;;;;;14.52;4.28;;;18.30;99.90;;;;;;5133855;27;20027;-58
2023/05/25 11:51:53;;;;;;;16.10;3.70;;;18.50;99.90;;;;;;5133646;27;20035;-58
2023/05/25 11:54:25;;;;;;;18.65;4.18;;;18.60;99.90;;;;;;5133925;27;20045;-58
2023/05/25 11:56:55;;;;;;;17.50;4.32;;;18.50;99.90;;;;;;5133144;27;20398;-50
2023/05/25 11:59:21;;;;;;;22.92;4.50;;;18.40;99.90;;;;;;5133659;27;20035;-58
2023/05/25 12:02:01;;;;;;;13.25;3.60;;;18.60;99.90;;;;;;5132796;27;20035;-58
2023/05/25 12:04:27;;;;;;;18.05;4.32;;;18.70;99.90;;;;;;5133048;27;20102;-58
2023/05/25 12:07:04;;;;;;;14.15;4.35;;;18.60;99.90;;;;;;5114179;27;20067;-58
2023/05/25 12:09:30;;;;;;;16.95;4.40;;;18.70;99.90;;;;;;5132164;27;20042;-59
2023/05/25 12:11:56;;;;;;;15.05;4.05;;;18.80;99.90;;;;;;5133041;27;20126;-58
2023/05/25 12:14:22;;;;;;;16.40;3.92;;;18.70;99.90;;;;;;5133549;27;20443;-59
2023/05/25 12:16:49;;;;;;;16.55;4.03;;;18.80;99.90;;;;;;5133065;27;20031;-58
2023/05/25 12:19:16;;;;;;;18.65;3.97;;;19.10;99.90;;;;;;5133299;27;20381;-58
2023/05/25 12:21:42;;;;;;;15.63;4.10;;;19.30;99.90;;;;;;5132992;27;20095;-58
2023/05/25 12:24:11;;;;;;;16.45;4.35;;;19.20;99.90;;;;;;5132640;27;20027;-54
2023/05/25 12:26:47;;;;;;;15.48;4.20;;;19.00;99.90;;;;;;5132898;27;20038;-59
2023/05/25 12:29:12;;;;;;;14.70;4.30;;;19.00;99.90;;;;;;5132942;27;20038;-58
2023/05/25 12:31:39;;;;;;;18.25;4.45;;;19.20;99.90;;;;;;5133116;27;20398;-58
2023/05/25 12:34:16;;;;;;;15.68;3.88;;;19.30;99.80;;;;;;5132515;27;20031;-59
2023/05/25 12:36:46;;;;;;;16.45;4.80;;;19.40;99.20;;;;;;5132946;27;20478;-59
2023/05/25 12:39:14;;;;;;;18.00;4.30;;;19.60;99.40;;;;;;5132395;27;20078;-59
2023/05/25 12:41:48;;;;;;;14.55;4.18;;;19.80;99.80;;;;;;5132379;27;20058;-59
2023/05/25 12:44:21;;;;;;;;;;;19.90;98.50;;;;;;5133049;27;20612;-58
2023/05/25 12:46:48;;;;;;;18.17;4.05;;;20.00;98.60;;;;;;5131859;27;20279;-58